createdAt,value
2017-08-17T00:01:33.973Z,76.50
2017-08-17T00:04:02.237Z,76.50
2017-08-17T00:06:30.473Z,76.70
2017-08-17T00:08:58.805Z,76.90
2017-08-17T00:11:27.059Z,77.10
2017-08-17T00:13:55.534Z,77.10
2017-08-17T00:16:23.804Z,77.20
2017-08-17T00:18:52.054Z,77.20
2017-08-17T00:21:20.431Z,77.00
2017-08-17T00:23:49.437Z,76.60
2017-08-17T00:26:17.686Z,76.70
2017-08-17T00:28:46.751Z,76.80
2017-08-17T00:31:15.098Z,76.80
2017-08-17T00:33:43.500Z,76.80
2017-08-17T00:36:11.866Z,76.90
2017-08-17T00:38:40.144Z,77.10
2017-08-17T00:41:08.392Z,77.50
2017-08-17T00:43:36.663Z,77.70
2017-08-17T00:46:04.902Z,77.80
2017-08-17T00:48:33.412Z,78.10
2017-08-17T00:51:02.408Z,78.70
2017-08-17T00:53:30.660Z,78.70
2017-08-17T00:55:59.672Z,79.30
2017-08-17T00:58:27.944Z,79.20
2017-08-17T01:00:56.942Z,79.60
2017-08-17T01:03:25.232Z,79.60
2017-08-17T01:05:54.225Z,79.90
2017-08-17T01:08:22.527Z,79.80
2017-08-17T01:10:50.782Z,80.00
2017-08-17T01:13:19.043Z,80.40
2017-08-17T01:15:47.350Z,80.90
2017-08-17T01:18:15.634Z,81.20
2017-08-17T01:20:43.864Z,81.70
2017-08-17T01:23:12.201Z,81.60
2017-08-17T01:25:40.447Z,81.40
2017-08-17T01:28:08.723Z,81.40
2017-08-17T01:30:36.994Z,81.50
2017-08-17T01:33:05.457Z,81.60
2017-08-17T01:35:33.722Z,82.10
2017-08-17T01:38:01.995Z,82.20
2017-08-17T01:40:30.255Z,82.20
2017-08-17T01:42:59.261Z,82.10
2017-08-17T01:45:27.661Z,82.00
2017-08-17T01:47:55.889Z,82.00
2017-08-17T01:50:25.081Z,83.30
2017-08-17T01:52:53.294Z,82.30
2017-08-17T01:55:22.117Z,82.50
2017-08-17T01:57:50.435Z,82.30
2017-08-17T02:00:18.674Z,82.50
2017-08-17T02:02:46.955Z,82.40
2017-08-17T02:05:15.347Z,82.80
2017-08-17T02:07:43.596Z,82.80
2017-08-17T02:10:11.885Z,82.90
2017-08-17T02:12:40.217Z,83.30
2017-08-17T02:15:08.476Z,83.20
2017-08-17T02:17:37.477Z,83.10
2017-08-17T02:20:05.921Z,83.10
2017-08-17T02:22:34.134Z,83.50
2017-08-17T02:25:02.398Z,83.60
2017-08-17T02:27:30.658Z,83.70
2017-08-17T02:29:59.704Z,83.30
2017-08-17T02:32:27.976Z,83.40
2017-08-17T02:34:56.221Z,83.30
2017-08-17T02:37:24.495Z,83.40
2017-08-17T02:39:53.514Z,83.50
2017-08-17T02:42:21.789Z,83.40
2017-08-17T02:44:50.025Z,83.70
2017-08-17T02:47:19.077Z,83.80
2017-08-17T02:49:47.317Z,83.80
2017-08-17T02:52:15.581Z,83.70
2017-08-17T02:54:44.745Z,83.90
2017-08-17T02:57:12.979Z,83.90
2017-08-17T02:59:41.366Z,84.00
2017-08-17T03:02:10.460Z,83.90
2017-08-17T03:04:38.882Z,83.90
2017-08-17T03:07:07.170Z,84.20
2017-08-17T03:09:35.382Z,84.00
2017-08-17T03:12:03.651Z,84.90
2017-08-17T03:14:32.053Z,84.10
2017-08-17T03:17:00.346Z,84.30
2017-08-17T03:19:28.583Z,84.30
2017-08-17T03:21:56.843Z,84.20
2017-08-17T03:24:25.132Z,84.50
2017-08-17T03:26:53.377Z,84.50
2017-08-17T03:29:21.634Z,84.80
2017-08-17T03:31:50.670Z,85.20
2017-08-17T03:34:18.945Z,85.20
2017-08-17T03:36:47.194Z,85.20
2017-08-17T03:39:16.320Z,85.40
2017-08-17T03:41:44.625Z,85.30
2017-08-17T03:44:12.888Z,85.40
2017-08-17T03:46:41.113Z,85.50
2017-08-17T03:49:10.117Z,85.40
2017-08-17T03:51:38.510Z,85.30
2017-08-17T03:54:06.772Z,85.40
2017-08-17T03:56:35.010Z,85.50
2017-08-17T03:59:04.029Z,85.20
2017-08-17T04:01:33.055Z,85.30
2017-08-17T04:04:01.375Z,85.30
2017-08-17T04:06:29.633Z,85.40
2017-08-17T04:08:57.904Z,85.40
2017-08-17T04:11:26.145Z,85.30
2017-08-17T04:13:54.390Z,85.20
2017-08-17T04:16:23.405Z,85.20
2017-08-17T04:18:51.651Z,85.10
2017-08-17T04:21:20.670Z,85.40
2017-08-17T04:23:49.018Z,85.40
2017-08-17T04:26:17.607Z,85.70
2017-08-17T04:28:46.752Z,86.00
2017-08-17T04:31:14.995Z,85.90
2017-08-17T04:33:43.352Z,85.80
2017-08-17T04:36:11.568Z,85.70
2017-08-17T04:38:39.860Z,85.50
2017-08-17T04:41:08.146Z,85.30
2017-08-17T04:43:36.434Z,85.10
2017-08-17T04:46:05.912Z,85.00
2017-08-17T04:48:35.189Z,85.30
2017-08-17T04:51:04.363Z,85.10
2017-08-17T04:53:33.589Z,85.10
2017-08-17T04:56:45.650Z,85.00
2017-08-17T04:59:22.427Z,85.10
2017-08-17T05:01:52.173Z,85.10
2017-08-17T05:04:21.126Z,84.70
2017-08-17T05:06:49.615Z,84.30
2017-08-17T05:09:18.645Z,83.80
2017-08-17T05:11:47.132Z,83.70
2017-08-17T05:14:15.416Z,83.80
2017-08-17T05:16:43.668Z,84.00
2017-08-17T05:19:11.902Z,84.30
2017-08-17T05:21:40.550Z,84.30
2017-08-17T05:24:09.259Z,84.50
2017-08-17T05:26:37.668Z,84.80
2017-08-17T05:29:05.944Z,84.90
2017-08-17T05:31:36.051Z,84.80
2017-08-17T05:34:05.111Z,84.70
2017-08-17T05:36:34.076Z,84.80
2017-08-17T05:39:04.361Z,84.40
2017-08-17T05:41:34.017Z,85.10
2017-08-17T05:44:02.761Z,85.10
2017-08-17T05:46:33.041Z,85.50
2017-08-17T05:49:01.765Z,85.50
2017-08-17T05:51:31.491Z,84.40
2017-08-17T05:54:00.093Z,84.40
2017-08-17T05:56:29.080Z,83.10
2017-08-17T05:58:57.446Z,81.80
2017-08-17T06:01:26.632Z,80.60
2017-08-17T06:03:54.906Z,80.60
2017-08-17T06:06:23.170Z,80.20
2017-08-17T06:08:51.428Z,80.00
2017-08-17T06:11:20.892Z,80.00
2017-08-17T06:13:50.501Z,80.00
2017-08-17T06:16:19.502Z,81.20
2017-08-17T06:18:48.573Z,81.70
2017-08-17T06:21:18.835Z,82.00
2017-08-17T06:23:47.941Z,81.50
2017-08-17T06:26:17.327Z,81.10
2017-08-17T06:28:46.468Z,80.40
2017-08-17T06:31:16.817Z,79.90
2017-08-17T06:33:46.490Z,79.60
2017-08-17T06:36:17.085Z,78.50
2017-08-17T06:38:45.667Z,78.50
2017-08-17T06:41:14.089Z,78.20
2017-08-17T06:43:42.326Z,77.30
2017-08-17T06:46:12.348Z,76.20
2017-08-17T06:48:40.623Z,76.10
2017-08-17T06:51:08.944Z,75.30
2017-08-17T06:53:37.230Z,74.00
2017-08-17T06:56:05.476Z,73.00
2017-08-17T06:58:33.779Z,72.70
2017-08-17T07:01:02.045Z,71.60
2017-08-17T07:03:30.340Z,71.40
2017-08-17T07:05:58.598Z,71.20
2017-08-17T07:08:27.772Z,71.20
2017-08-17T07:10:56.024Z,71.20
2017-08-17T07:13:24.477Z,71.30
2017-08-17T07:15:52.742Z,70.90
2017-08-17T07:18:21.748Z,70.10
2017-08-17T07:20:50.108Z,69.20
2017-08-17T07:23:18.568Z,68.30
2017-08-17T07:25:46.785Z,66.60
2017-08-17T07:28:15.187Z,66.10
2017-08-17T07:30:43.457Z,65.20
2017-08-17T07:33:11.943Z,64.60
2017-08-17T07:35:40.189Z,63.90
2017-08-17T07:38:08.444Z,62.60
2017-08-17T07:40:37.477Z,60.60
2017-08-17T07:43:05.761Z,60.50
2017-08-17T07:45:34.009Z,60.30
2017-08-17T07:48:02.284Z,59.40
2017-08-17T07:50:30.524Z,59.80
2017-08-17T07:52:58.769Z,59.60
2017-08-17T07:55:27.033Z,59.80
2017-08-17T07:57:55.414Z,60.00
2017-08-17T08:00:23.666Z,60.40
2017-08-17T08:02:51.919Z,59.60
2017-08-17T08:05:21.151Z,59.00
2017-08-17T08:07:49.406Z,59.00
2017-08-17T08:10:17.672Z,58.40
2017-08-17T08:12:45.976Z,57.80
2017-08-17T08:15:14.210Z,57.00
2017-08-17T08:17:43.224Z,55.80
2017-08-17T08:20:11.489Z,55.80
2017-08-17T08:22:40.529Z,55.70
2017-08-17T08:25:08.853Z,55.70
2017-08-17T08:27:37.092Z,55.60
2017-08-17T08:30:05.345Z,55.90
2017-08-17T08:32:33.585Z,56.20
2017-08-17T08:35:01.910Z,56.50
2017-08-17T08:37:31.125Z,56.90
2017-08-17T08:39:59.577Z,57.00
2017-08-17T08:42:27.831Z,57.00
2017-08-17T08:44:56.241Z,56.30
2017-08-17T08:47:24.470Z,56.30
2017-08-17T08:49:52.756Z,56.10
2017-08-17T08:52:21.633Z,55.70
2017-08-17T08:54:49.901Z,56.10
2017-08-17T08:57:18.974Z,56.80
2017-08-17T08:59:47.244Z,56.40
2017-08-17T09:02:15.529Z,56.50
2017-08-17T09:04:43.874Z,57.30
2017-08-17T09:07:12.129Z,58.10
2017-08-17T09:09:40.433Z,58.20
2017-08-17T09:12:08.716Z,58.90
2017-08-17T09:14:36.963Z,59.40
2017-08-17T09:17:05.218Z,60.30
2017-08-17T09:19:33.602Z,60.50
2017-08-17T09:22:01.869Z,61.70
2017-08-17T09:24:30.964Z,62.40
2017-08-17T09:26:59.257Z,62.90
2017-08-17T09:29:27.579Z,62.70
2017-08-17T09:31:55.833Z,63.20
2017-08-17T09:34:24.071Z,62.20
2017-08-17T09:36:52.351Z,61.40
2017-08-17T09:39:20.697Z,62.20
2017-08-17T09:41:48.998Z,61.00
2017-08-17T09:44:17.995Z,61.10
2017-08-17T09:46:46.873Z,61.10
2017-08-17T09:49:15.950Z,61.90
2017-08-17T09:51:44.968Z,60.60
2017-08-17T09:54:13.223Z,60.60
2017-08-17T09:56:42.269Z,59.10
2017-08-17T09:59:10.605Z,59.00
2017-08-17T10:01:38.985Z,58.50
2017-08-17T10:04:07.367Z,57.80
2017-08-17T10:06:35.813Z,57.50
2017-08-17T10:09:04.108Z,56.80
2017-08-17T10:11:32.374Z,55.90
2017-08-17T10:14:01.422Z,57.70
2017-08-17T10:16:29.659Z,57.00
2017-08-17T10:18:57.926Z,57.30
2017-08-17T10:21:26.936Z,57.60
2017-08-17T10:23:55.227Z,57.60
2017-08-17T10:26:23.497Z,58.00
2017-08-17T10:28:51.808Z,58.20
2017-08-17T10:31:22.459Z,57.80
2017-08-17T10:33:50.707Z,58.30
2017-08-17T10:36:19.268Z,59.10
2017-08-17T10:38:47.580Z,58.10
2017-08-17T10:41:15.967Z,57.70
2017-08-17T10:43:44.224Z,57.60
2017-08-17T10:46:13.514Z,57.40
2017-08-17T10:48:42.802Z,57.10
2017-08-17T10:51:11.225Z,57.00
2017-08-17T10:53:39.457Z,56.90
2017-08-17T10:56:07.733Z,57.80
2017-08-17T10:58:35.986Z,57.60
2017-08-17T11:01:04.241Z,57.50
2017-08-17T11:03:32.704Z,57.50
2017-08-17T11:06:01.193Z,56.90
2017-08-17T11:08:29.713Z,58.00
2017-08-17T11:10:57.954Z,57.60
2017-08-17T11:13:27.017Z,55.70
2017-08-17T11:15:55.266Z,55.70
2017-08-17T11:18:23.540Z,55.00
2017-08-17T11:20:51.794Z,55.00
2017-08-17T11:23:20.054Z,55.30
2017-08-17T11:25:49.096Z,53.40
2017-08-17T11:28:17.355Z,53.30
2017-08-17T11:30:45.622Z,53.30
2017-08-17T11:33:13.893Z,52.70
2017-08-17T11:35:42.335Z,51.30
2017-08-17T11:38:10.600Z,50.60
2017-08-17T11:40:38.868Z,49.80
2017-08-17T11:43:07.193Z,50.50
2017-08-17T11:45:35.460Z,51.20
2017-08-17T11:48:04.465Z,52.20
2017-08-17T11:50:32.742Z,52.20
2017-08-17T11:53:01.191Z,53.40
2017-08-17T11:55:29.458Z,53.00
2017-08-17T11:57:59.628Z,53.50
2017-08-17T12:00:29.869Z,54.90
2017-08-17T12:02:58.181Z,54.90
2017-08-17T12:05:27.300Z,55.10
2017-08-17T12:07:56.419Z,54.30
2017-08-17T12:10:24.911Z,54.20
2017-08-17T12:12:53.169Z,53.70
2017-08-17T12:15:21.431Z,53.00
2017-08-17T12:17:49.716Z,52.30
2017-08-17T12:20:17.971Z,53.10
2017-08-17T12:22:46.426Z,53.60
2017-08-17T12:25:14.816Z,54.90
2017-08-17T12:27:43.930Z,54.20
2017-08-17T12:30:12.959Z,54.40
2017-08-17T12:32:41.437Z,54.40
2017-08-17T12:35:09.816Z,52.30
2017-08-17T12:37:38.049Z,52.50
2017-08-17T12:40:06.370Z,51.80
2017-08-17T12:42:34.648Z,51.70
2017-08-17T12:45:03.646Z,50.20
2017-08-17T12:47:32.053Z,47.50
2017-08-17T12:50:00.308Z,45.40
2017-08-17T12:52:28.638Z,46.70
2017-08-17T12:54:57.873Z,45.60
2017-08-17T12:57:26.277Z,45.40
2017-08-17T12:59:54.563Z,46.30
2017-08-17T13:02:22.885Z,47.00
2017-08-17T13:04:51.210Z,46.30
2017-08-17T13:07:19.437Z,47.40
2017-08-17T13:09:47.738Z,46.60
2017-08-17T13:12:16.089Z,47.00
2017-08-17T13:14:44.339Z,47.50
2017-08-17T13:17:13.134Z,48.10
2017-08-17T13:19:41.533Z,47.40
2017-08-17T13:22:09.762Z,46.30
2017-08-17T13:24:38.772Z,46.90
2017-08-17T13:27:07.021Z,47.00
2017-08-17T13:29:36.028Z,48.30
2017-08-17T13:32:05.074Z,48.10
2017-08-17T13:34:33.516Z,48.10
2017-08-17T13:37:03.532Z,48.70
2017-08-17T13:39:31.869Z,48.70
2017-08-17T13:42:00.114Z,49.00
2017-08-17T13:44:28.400Z,47.70
2017-08-17T13:46:56.642Z,47.90
2017-08-17T13:49:24.900Z,48.70
2017-08-17T13:51:53.901Z,48.30
2017-08-17T13:54:22.130Z,48.30
2017-08-17T13:56:50.419Z,48.60
2017-08-17T13:59:18.761Z,49.80
2017-08-17T14:01:47.010Z,50.80
2017-08-17T14:04:15.273Z,50.30
2017-08-17T14:06:43.620Z,49.20
2017-08-17T14:09:11.915Z,49.80
2017-08-17T14:11:40.128Z,48.80
2017-08-17T14:14:08.378Z,49.00
2017-08-17T14:16:36.749Z,48.00
2017-08-17T14:19:05.032Z,48.30
2017-08-17T14:21:33.375Z,48.60
2017-08-17T14:24:02.412Z,47.50
2017-08-17T14:26:30.724Z,47.40
2017-08-17T14:28:58.995Z,47.30
2017-08-17T14:31:27.375Z,47.60
2017-08-17T14:33:55.656Z,47.40
2017-08-17T14:36:23.985Z,47.40
2017-08-17T14:38:53.009Z,49.60
2017-08-17T14:41:21.352Z,49.30
2017-08-17T14:43:49.634Z,49.00
2017-08-17T14:46:17.924Z,48.80
2017-08-17T14:48:46.189Z,48.80
2017-08-17T14:51:14.455Z,48.90
2017-08-17T14:53:42.713Z,49.70
2017-08-17T14:56:11.715Z,50.30
2017-08-17T14:58:40.701Z,49.90
2017-08-17T15:01:09.162Z,51.00
2017-08-17T15:03:37.412Z,49.90
2017-08-17T15:06:05.649Z,48.90
2017-08-17T15:08:33.901Z,49.80
2017-08-17T15:11:03.019Z,49.00
2017-08-17T15:13:31.363Z,48.90
2017-08-17T15:15:59.599Z,49.10
2017-08-17T15:18:27.871Z,49.40
2017-08-17T15:20:56.272Z,50.00
2017-08-17T15:23:24.888Z,49.40
2017-08-17T15:25:53.356Z,49.90
2017-08-17T15:28:23.370Z,49.60
2017-08-17T15:30:52.708Z,49.60
2017-08-17T15:33:22.273Z,49.60
2017-08-17T15:35:51.620Z,49.10
2017-08-17T15:38:20.259Z,49.00
2017-08-17T15:40:48.851Z,49.10
2017-08-17T15:43:17.231Z,49.40
2017-08-17T15:45:46.271Z,50.00
2017-08-17T15:48:14.583Z,50.00
2017-08-17T15:50:43.964Z,49.70
2017-08-17T15:53:12.213Z,49.50
2017-08-17T15:55:40.648Z,49.90
2017-08-17T15:58:08.898Z,50.10
2017-08-17T16:00:37.295Z,50.60
2017-08-17T16:03:05.516Z,50.10
2017-08-17T16:05:33.866Z,50.80
2017-08-17T16:08:02.943Z,50.40
2017-08-17T16:10:31.200Z,50.30
2017-08-17T16:12:59.468Z,49.80
2017-08-17T16:15:27.737Z,49.80
2017-08-17T16:17:55.992Z,50.40
2017-08-17T16:20:24.375Z,50.70
2017-08-17T16:22:52.648Z,50.90
2017-08-17T16:25:21.212Z,51.30
2017-08-17T16:27:50.292Z,51.70
2017-08-17T16:30:19.062Z,51.70
2017-08-17T16:32:48.441Z,51.80
2017-08-17T16:35:17.125Z,51.70
2017-08-17T16:37:45.464Z,51.70
2017-08-17T16:40:13.686Z,51.90
2017-08-17T16:42:41.954Z,51.90
2017-08-17T16:45:10.177Z,52.50
2017-08-17T16:47:38.467Z,52.50
2017-08-17T16:50:07.571Z,52.60
2017-08-17T16:52:35.844Z,52.50
2017-08-17T16:55:04.115Z,52.80
2017-08-17T16:57:32.397Z,53.10
2017-08-17T17:00:01.001Z,52.70
2017-08-17T17:02:29.364Z,53.20
2017-08-17T17:04:57.882Z,53.10
2017-08-17T17:07:26.334Z,53.00
2017-08-17T17:09:54.651Z,53.50
2017-08-17T17:12:22.902Z,53.60
2017-08-17T17:14:51.161Z,53.80
2017-08-17T17:17:19.439Z,53.80
2017-08-17T17:19:47.669Z,53.90
2017-08-17T17:22:16.109Z,53.80
2017-08-17T17:24:44.408Z,53.70
2017-08-17T17:27:12.658Z,53.70
2017-08-17T17:29:40.912Z,53.50
2017-08-17T17:32:09.330Z,54.00
2017-08-17T17:34:37.606Z,54.00
2017-08-17T17:37:05.864Z,54.00
2017-08-17T17:39:34.133Z,54.10
2017-08-17T17:42:02.610Z,54.60
2017-08-17T17:44:31.126Z,54.60
2017-08-17T17:46:59.386Z,54.60
2017-08-17T17:49:28.457Z,55.20
2017-08-17T17:51:56.775Z,55.20
2017-08-17T17:54:25.064Z,55.10
2017-08-17T17:56:54.090Z,55.60
2017-08-17T17:59:22.328Z,55.60
2017-08-17T18:01:50.613Z,56.00
2017-08-17T18:04:18.900Z,56.30
2017-08-17T18:06:47.180Z,56.30
2017-08-17T18:09:15.562Z,56.10
2017-08-17T18:11:43.868Z,56.30
2017-08-17T18:14:12.130Z,56.30
2017-08-17T18:16:40.400Z,56.40
2017-08-17T18:19:08.789Z,56.30
2017-08-17T18:21:37.113Z,56.40
2017-08-17T18:24:05.388Z,56.70
2017-08-17T18:26:34.433Z,57.20
2017-08-17T18:29:02.680Z,57.20
2017-08-17T18:31:31.071Z,57.10
2017-08-17T18:33:59.599Z,57.20
2017-08-17T18:36:27.865Z,57.60
2017-08-17T18:38:56.106Z,57.40
2017-08-17T18:41:24.460Z,57.60
2017-08-17T18:43:52.857Z,57.70
2017-08-17T18:46:21.277Z,57.60
2017-08-17T18:48:50.391Z,57.60
2017-08-17T18:51:18.673Z,57.60
2017-08-17T18:53:47.798Z,57.30
2017-08-17T18:56:16.093Z,57.40
2017-08-17T18:58:44.422Z,57.30
2017-08-17T19:01:12.777Z,57.40
2017-08-17T19:03:41.092Z,57.80
2017-08-17T19:06:10.250Z,57.80
2017-08-17T19:08:38.453Z,57.80
2017-08-17T19:11:06.736Z,57.90
2017-08-17T19:13:36.020Z,57.80
2017-08-17T19:16:04.530Z,58.10
2017-08-17T19:18:32.785Z,58.30
2017-08-17T19:21:01.861Z,58.80
2017-08-17T19:23:30.869Z,59.50
2017-08-17T19:25:59.123Z,58.90
2017-08-17T19:28:28.178Z,59.20
2017-08-17T19:30:56.459Z,59.20
2017-08-17T19:33:24.716Z,59.20
2017-08-17T19:35:52.981Z,59.40
2017-08-17T19:38:21.335Z,59.80
2017-08-17T19:40:50.506Z,60.00
2017-08-17T19:43:18.953Z,60.00
2017-08-17T19:45:47.268Z,60.20
2017-08-17T19:48:15.549Z,60.20
2017-08-17T19:50:44.574Z,61.60
2017-08-17T19:53:12.820Z,60.60
2017-08-17T19:55:42.457Z,60.90
2017-08-17T19:58:10.840Z,61.10
2017-08-17T20:00:39.137Z,61.60
2017-08-17T20:03:07.404Z,61.20
2017-08-17T20:05:35.714Z,61.20
2017-08-17T20:08:04.049Z,61.20
2017-08-17T20:10:32.321Z,61.30
2017-08-17T20:13:00.605Z,61.80
2017-08-17T20:15:28.849Z,61.90
2017-08-17T20:17:57.128Z,62.20
2017-08-17T20:20:26.638Z,63.20
2017-08-17T20:22:54.909Z,62.60
2017-08-17T20:25:23.279Z,62.60
2017-08-17T20:27:52.306Z,62.60
2017-08-17T20:30:20.552Z,62.60
2017-08-17T20:32:48.906Z,62.80
2017-08-17T20:35:17.185Z,63.20
2017-08-17T20:37:45.660Z,63.20
2017-08-17T20:40:15.965Z,62.90
2017-08-17T20:42:44.233Z,63.20
2017-08-17T20:45:12.877Z,62.90
2017-08-17T20:47:41.170Z,63.50
2017-08-17T20:50:10.181Z,63.90
2017-08-17T20:52:38.456Z,63.30
2017-08-17T20:55:06.717Z,63.40
2017-08-17T20:57:34.991Z,63.30
2017-08-17T21:00:03.268Z,63.40
2017-08-17T21:02:31.519Z,63.60
2017-08-17T21:04:59.767Z,63.60
2017-08-17T21:07:28.014Z,63.40
2017-08-17T21:09:56.313Z,64.00
2017-08-17T21:12:24.670Z,63.80
2017-08-17T21:14:52.894Z,63.90
2017-08-17T21:17:21.308Z,64.50
2017-08-17T21:19:49.578Z,65.30
2017-08-17T21:22:17.817Z,64.60
2017-08-17T21:24:46.090Z,65.60
2017-08-17T21:27:16.338Z,65.00
2017-08-17T21:29:44.781Z,65.00
2017-08-17T21:32:13.021Z,65.20
2017-08-17T21:34:41.428Z,65.40
2017-08-17T21:37:09.753Z,65.70
2017-08-17T21:39:38.077Z,66.40
2017-08-17T21:42:06.358Z,66.40
2017-08-17T21:44:34.604Z,66.60
2017-08-17T21:47:04.863Z,67.00
2017-08-17T21:49:33.158Z,66.90
2017-08-17T21:52:02.322Z,67.00
2017-08-17T21:54:30.548Z,67.00
2017-08-17T21:56:59.341Z,67.10
2017-08-17T21:59:27.686Z,67.30
2017-08-17T22:01:56.684Z,68.10
2017-08-17T22:04:25.088Z,68.00
2017-08-17T22:06:53.566Z,68.30
2017-08-17T22:09:22.251Z,68.40
2017-08-17T22:11:50.470Z,68.50
2017-08-17T22:14:18.743Z,68.90
2017-08-17T22:16:47.020Z,68.80
2017-08-17T22:19:17.936Z,69.40
2017-08-17T22:21:46.485Z,69.50
2017-08-17T22:24:14.742Z,69.50
2017-08-17T22:26:43.153Z,69.70
2017-08-17T22:29:11.410Z,69.70
2017-08-17T22:31:39.657Z,70.10
2017-08-17T22:34:09.033Z,70.20
2017-08-17T22:36:38.552Z,70.10
2017-08-17T22:39:06.782Z,70.00
2017-08-17T22:41:35.063Z,70.30
2017-08-17T22:44:03.972Z,70.50
2017-08-17T22:46:32.366Z,70.80
2017-08-17T22:49:01.933Z,70.70
2017-08-17T22:51:30.225Z,70.60
2017-08-17T22:53:58.468Z,71.00
2017-08-17T22:56:26.822Z,70.90
2017-08-17T22:58:55.856Z,71.00
2017-08-17T23:01:24.276Z,71.00
2017-08-17T23:03:53.164Z,70.90
2017-08-17T23:06:22.629Z,70.80
2017-08-17T23:08:50.960Z,71.20
2017-08-17T23:11:20.443Z,71.70
2017-08-17T23:13:48.842Z,71.40
2017-08-17T23:16:17.148Z,71.70
2017-08-17T23:18:45.416Z,71.80
2017-08-17T23:21:14.446Z,71.80
2017-08-17T23:23:42.864Z,71.80
2017-08-17T23:26:11.953Z,71.90
2017-08-17T23:28:41.486Z,72.10
2017-08-17T23:31:10.485Z,72.60
2017-08-17T23:33:39.669Z,72.50
2017-08-17T23:36:07.916Z,72.90
2017-08-17T23:38:36.153Z,72.80
2017-08-17T23:41:05.709Z,73.70
2017-08-17T23:43:35.021Z,74.10
2017-08-17T23:46:03.545Z,74.50
2017-08-17T23:48:31.805Z,74.90
2017-08-17T23:51:02.828Z,75.90
2017-08-17T23:53:33.948Z,76.80
2017-08-17T23:56:02.211Z,76.80
2017-08-17T23:58:30.527Z,77.20
